Airfield :
LOGIN :

Register | Disclaimer

   EN    FR    IT 

 










Legend :    VFR   Marginal VFR   IFR   Intensive IFR   Very Intensive IFR
Visi :
Ceiling :
>= 8 km
>= 3000ft
5 to 8 km
1000 to 3000 ft
1500m to 5 km
500 to 1000 ft
800 to 1500m
200 to 500 ft
< 800m
< 200 ft
Symbols :   Thunderstorms  Fog  Heavy snow  Heavy precipitations  Wind > 20 kt
SIGMETs :     Misc.  Thunderstorms  Icing  Turbulence  Mountain Waves  Volcanic Ashes







- Airport Elevation : 162 ft
- IATA code : BOD
- Download approach charts


LFBD - Bordeaux / Merignac

CURRENT METAR :
  • 151530Z AUTO 28007KT CAVOK 07/05 Q1007 TEMPO 31020G35KT 1400 -TSRAGS BKN015CB

EXPIRED METARs :
  • 151500Z AUTO 31009KT 9999 FEW018/// SCT090/// ///CB 08/06 Q1006 TEMPO 31020G35KT 1400 -TSRAGS
  • 151430Z AUTO 30007KT 9999 4800 -RA FEW033/// SCT050/// BKN064/// ///CB 09/06 Q1006 TEMPO 31020G35KT 1400 -TSRAGS
  • 151400Z AUTO 30011KT 9999 FEW038/// SCT130/// ///CB 09/06 Q1006 TEMPO 31020G35KT 1400 -TSRAGS
  • 151330Z AUTO 33019G31KT 3700 RA BR FEW020/// BKN026/// BKN034/// ///CB 08/06 Q1006 TEMPO 1400 -TSRA
  • 151300Z AUTO 28012KT 9999 SCT030/// BKN038/// BKN047/// ///CB 10/08 Q1005 TEMPO 31020G35KT 1400 -TSRA

TAF AMD TAF LFBD
Valid from the 15 at 13:00 until the 16 at 18:00 UTC


151323Z 1513/1618 30008KT 9999 BKN035
TEMPO 1513/1518 31015G25KT 3000 SHRA SCT015 BKN020TCU
PROB40
TEMPO 1513/1518 31020G35KT 1400 -TSRAGS BKN015CB
BECMG 1602/1604 3000 BR NSC
PROB30
TEMPO 1604/1608 0800 BCFG
FM161400 35007KT CAVOK TX10/1514Z TN01/1606Z
ATIS : +33 5 57 92 81 04
No reported NOTAMs for that airfield.



MET'MAP, your aeronautical weather chart ! - Copyright ORBIFLY December 2007 - Disclaimer

ORBIFLY MET'MAP TEAM :

Programming & Development : Alexandra Zaïnal
Concept & Development : Baudouin d'Aumeries
Co-Development & Prog : Marc-Olivier Méhu
Technical & hardware support : Manuel Goepfert

Contact : metmap@orbifly.com




SOURCES & CREDITS :

   NOAA